Time;durP1;ratioP1;P1;durP2;ratioP2;P2;SDS_P1;SDS_P2;PMS_P1;PMS_P2;Temp;Humidity;BMP_temperature;BMP_pressure;BME280_temperature;BME280_humidity;BME280_pressure;Samples;Min_cycle;Max_cycle;Signal;HPM_P1;HPM_P2
2022/11/20 00:00:54;;;;;;;5.30;4.80;;;;;;;5.45;100.00;152762.69;4991687;28;20468;-77
2022/11/20 00:03:39;;;;;;;5.10;4.50;;;;;;;5.44;100.00;152758.84;4991296;28;20869;-76
2022/11/20 00:06:26;;;;;;;4.90;4.30;;;;;;;5.41;100.00;152751.09;4995318;28;20998;-76
2022/11/20 00:09:11;;;;;;;5.30;4.37;;;;;;;5.42;100.00;152755.00;4984137;28;20469;-76
2022/11/20 00:11:57;;;;;;;5.37;4.57;;;;;;;5.40;100.00;152748.56;4999103;28;20974;-76
2022/11/20 00:14:42;;;;;;;5.37;4.30;;;;;;;5.38;100.00;152744.66;5014377;28;20409;-76
2022/11/20 00:17:27;;;;;;;5.40;4.27;;;;;;;5.36;100.00;152738.22;4994408;28;20460;-76
2022/11/20 00:20:13;;;;;;;5.97;5.07;;;;;;;5.37;100.00;152740.81;5001772;28;20464;-76
2022/11/20 00:22:59;;;;;;;5.40;4.60;;;;;;;5.37;100.00;152742.09;5002244;28;20818;-76
2022/11/20 00:25:45;;;;;;;5.40;4.63;;;;;;;5.38;100.00;152743.34;4992884;28;20468;-76
2022/11/20 00:28:30;;;;;;;5.17;4.67;;;;;;;5.34;100.00;152733.06;4992264;28;21032;-77
2022/11/20 00:31:16;;;;;;;5.23;4.67;;;;;;;5.32;100.00;152729.16;4994186;28;20491;-76
2022/11/20 00:34:02;;;;;;;6.27;4.80;;;;;;;5.32;100.00;152727.91;4973614;28;20407;-76
2022/11/20 00:36:47;;;;;;;5.60;4.43;;;;;;;5.32;100.00;152729.16;4987358;28;20447;-76
2022/11/20 00:39:34;;;;;;;6.70;4.77;;;;;;;5.33;100.00;152731.78;4990966;28;20955;-76
2022/11/20 00:42:19;;;;;;;5.40;4.40;;;;;;;5.31;100.00;152725.31;4998024;28;20495;-76
2022/11/20 00:45:06;;;;;;;6.77;4.50;;;;;;;5.32;100.00;152727.91;4992177;28;20975;-76
2022/11/20 00:47:51;;;;;;;7.30;4.73;;;;;;;5.32;100.00;152727.91;4994205;28;20449;-76
2022/11/20 00:50:37;;;;;;;6.10;5.10;;;;;;;5.36;100.00;152738.22;4993654;28;20448;-76
2022/11/20 00:53:22;;;;;;;5.03;4.53;;;;;;;5.33;100.00;152730.47;4993105;28;20452;-76
2022/11/20 00:56:13;;;;;;;5.50;4.20;;;;;;;5.35;100.00;152735.63;4993697;28;20483;-76
2022/11/20 00:59:00;;;;;;;6.53;4.67;;;;;;;5.34;100.00;152734.38;4988979;28;20508;-76
2022/11/20 01:01:45;;;;;;;5.47;4.30;;;;;;;5.36;100.00;152738.22;4987337;28;20461;-76
2022/11/20 01:04:31;;;;;;;5.40;4.20;;;;;;;5.36;100.00;152739.50;4981652;28;20468;-76
2022/11/20 01:07:16;;;;;;;4.47;3.73;;;;;;;5.37;100.00;152740.81;4999993;28;20453;-76
2022/11/20 01:10:01;;;;;;;5.23;3.93;;;;;;;5.37;100.00;152740.81;4984467;28;20437;-76
2022/11/20 01:13:36;;;;;;;5.93;4.53;;;;;;;5.33;100.00;152731.78;4975230;28;20482;-76
2022/11/20 01:15:54;;;;;;;5.03;4.07;;;;;;;5.36;100.00;152739.50;4953870;28;20454;-76
2022/11/20 01:18:41;;;;;;;4.17;3.63;;;;;;;5.35;100.00;152735.63;4965371;28;20580;-76
2022/11/20 01:21:28;;;;;;;5.50;4.63;;;;;;;5.37;100.00;152740.81;4960616;28;20453;-76
2022/11/20 01:24:15;;;;;;;5.30;3.60;;;;;;;5.36;100.00;152738.22;4954728;28;20470;-77
2022/11/20 01:27:01;;;;;;;4.87;3.93;;;;;;;5.36;100.00;152738.22;4971461;28;20458;-76
2022/11/20 01:29:47;;;;;;;5.37;3.90;;;;;;;5.33;100.00;152730.47;4972288;28;20569;-76
2022/11/20 01:32:33;;;;;;;6.33;3.80;;;;;;;5.35;100.00;152735.63;4964736;28;20501;-76
2022/11/20 01:35:18;;;;;;;6.20;3.93;;;;;;;5.36;100.00;152739.50;4972977;28;20413;-76
2022/11/20 01:38:03;;;;;;;5.30;3.63;;;;;;;5.32;100.00;152727.91;4966854;28;20996;-76
2022/11/20 01:40:55;;;;;;;5.03;4.20;;;;;;;5.30;100.00;152724.03;4972672;28;20449;-76
2022/11/20 01:43:39;;;;;;;3.57;3.20;;;;;;;5.31;100.00;152726.63;4973795;28;20450;-76
2022/11/20 01:46:26;;;;;;;4.53;3.47;;;;;;;5.28;100.00;152717.59;4954251;29;20418;-76
2022/11/20 01:49:17;;;;;;;6.37;3.70;;;;;;;5.28;100.00;152717.59;4968060;28;20474;-76
2022/11/20 01:52:05;;;;;;;4.03;3.30;;;;;;;5.23;100.00;152706.00;4973493;28;20871;-76
2022/11/20 01:54:54;;;;;;;5.10;3.53;;;;;;;5.18;100.00;152691.81;4949415;29;20423;-76
2022/11/20 01:57:39;;;;;;;4.10;3.37;;;;;;;5.14;100.00;152681.47;4953773;28;20450;-75
2022/11/20 02:00:25;;;;;;;3.60;3.10;;;;;;;5.13;100.00;152678.94;4973003;28;20454;-76
2022/11/20 02:03:14;;;;;;;3.53;3.10;;;;;;;5.05;100.00;152659.59;4973756;28;20449;-76
2022/11/20 02:06:05;;;;;;;3.87;3.17;;;;;;;5.00;100.00;152645.41;4988399;28;20457;-76
2022/11/20 02:08:51;;;;;;;3.43;3.13;;;;;;;4.96;100.00;152635.06;4950095;29;20435;-76
2022/11/20 02:11:37;;;;;;;3.90;3.40;;;;;;;4.96;100.00;152635.06;4970548;28;20560;-77
2022/11/20 02:14:22;;;;;;;4.17;3.47;;;;;;;4.91;100.00;152624.78;4972603;28;20462;-77
2022/11/20 02:17:07;;;;;;;4.10;3.20;;;;;;;4.89;100.00;152618.34;4973189;28;20454;-77
2022/11/20 02:19:54;;;;;;;5.73;3.40;;;;;;;4.89;100.00;152619.66;4963385;28;20923;-77
2022/11/20 02:22:46;;;;;;;3.87;3.10;;;;;;;4.91;100.00;152624.78;4958416;28;20775;-76
2022/11/20 02:25:34;;;;;;;3.90;3.07;;;;;;;4.95;100.00;152632.53;4950704;28;20450;-77
2022/11/20 02:28:19;;;;;;;3.90;3.03;;;;;;;4.95;100.00;152632.53;4973362;28;21312;-76
2022/11/20 02:31:05;;;;;;;3.53;2.83;;;;;;;4.98;100.00;152640.28;4987383;28;20441;-76
2022/11/20 02:33:55;;;;;;;3.70;3.13;;;;;;;4.98;100.00;152641.53;4958546;28;21231;-77
2022/11/20 02:36:42;;;;;;;3.83;3.43;;;;;;;4.93;100.00;152629.94;4973494;28;20767;-76
2022/11/20 02:39:28;;;;;;;3.67;2.70;;;;;;;4.92;100.00;152627.34;4973981;28;20917;-77
2022/11/20 02:42:15;;;;;;;3.70;3.30;;;;;;;4.89;100.00;152619.66;4963854;28;20458;-76
2022/11/20 02:45:00;;;;;;;4.50;3.67;;;;;;;4.87;100.00;152614.47;4952201;28;20466;-76
2022/11/20 02:47:45;;;;;;;3.63;3.30;;;;;;;4.90;100.00;152620.91;4950917;28;20418;-76
2022/11/20 02:50:31;;;;;;;5.00;3.47;;;;;;;4.89;100.00;152619.66;4973985;28;20461;-77
2022/11/20 02:53:16;;;;;;;4.03;3.30;;;;;;;4.82;100.00;152601.56;4974837;28;20460;-77
2022/11/20 02:56:01;;;;;;;5.23;3.77;;;;;;;4.82;100.00;152601.56;4976710;28;20457;-76
2022/11/20 02:58:48;;;;;;;5.40;3.70;;;;;;;4.83;100.00;152604.16;4981914;28;20511;-77
2022/11/20 03:01:33;;;;;;;3.83;3.47;;;;;;;4.83;100.00;152604.16;4960869;28;20536;-76
2022/11/20 03:04:19;;;;;;;3.97;3.30;;;;;;;4.86;100.00;152611.91;4957846;28;20620;-77
2022/11/20 03:07:04;;;;;;;4.53;3.67;;;;;;;4.87;100.00;152613.22;4965971;28;20465;-76
2022/11/20 03:09:49;;;;;;;5.20;3.73;;;;;;;4.85;100.00;152609.31;4973433;28;20591;-76
2022/11/20 03:12:35;;;;;;;4.40;3.73;;;;;;;4.89;100.00;152619.66;4964986;28;21225;-76
2022/11/20 03:15:21;;;;;;;5.00;3.90;;;;;;;4.89;100.00;152619.66;4960123;28;20435;-76
2022/11/20 03:18:07;;;;;;;4.70;3.83;;;;;;;4.94;100.00;152631.22;4966541;28;20510;-76
2022/11/20 03:20:58;;;;;;;5.60;4.47;;;;;;;4.90;100.00;152622.19;4975577;28;20840;-76
2022/11/20 03:23:43;;;;;;;5.80;4.43;;;;;;;4.89;100.00;152619.66;4976124;28;20799;-76
2022/11/20 03:26:29;;;;;;;5.30;3.90;;;;;;;4.93;100.00;152629.94;4968379;28;20461;-76
2022/11/20 03:29:14;;;;;;;6.57;4.63;;;;;;;4.92;100.00;152627.34;4971486;28;20505;-77
2022/11/20 03:32:00;;;;;;;5.13;4.40;;;;;;;4.97;100.00;152637.69;4976653;28;20433;-77
2022/11/20 03:34:46;;;;;;;5.07;4.40;;;;;;;4.93;100.00;152629.94;4974621;28;20944;-77
2022/11/20 03:37:32;;;;;;;5.90;4.30;;;;;;;4.98;100.00;152641.53;4971221;28;20442;-77
2022/11/20 03:40:18;;;;;;;4.70;4.30;;;;;;;4.93;100.00;152629.94;4968122;28;20438;-76
2022/11/20 03:43:04;;;;;;;4.77;4.03;;;;;;;4.90;100.00;152622.19;4975199;28;20500;-76
2022/11/20 03:45:49;;;;;;;4.37;3.87;;;;;;;4.84;100.00;152606.72;4950342;28;20475;-76
2022/11/20 03:48:35;;;;;;;4.90;4.40;;;;;;;4.83;100.00;152604.16;4960955;28;20437;-76
2022/11/20 03:51:23;;;;;;;4.73;3.93;;;;;;;4.81;100.00;152599.03;4974789;28;20929;-76
2022/11/20 03:54:09;;;;;;;4.50;3.70;;;;;;;4.77;100.00;152587.41;4975847;28;20398;-76
2022/11/20 03:56:54;;;;;;;7.30;4.80;;;;;;;4.71;100.00;152571.97;4964855;28;20470;-76
2022/11/20 03:59:40;;;;;;;4.50;3.73;;;;;;;4.70;100.00;152570.66;4975377;28;20781;-77
2022/11/20 04:02:25;;;;;;;4.90;3.97;;;;;;;4.67;100.00;152562.94;4969939;28;20466;-76
2022/11/20 04:05:12;;;;;;;5.40;4.63;;;;;;;4.63;100.00;152551.34;4954377;28;20454;-76
2022/11/20 04:07:57;;;;;;;7.30;5.00;;;;;;;4.59;100.00;152541.03;4961592;28;20505;-76
2022/11/20 04:10:42;;;;;;;5.17;4.20;;;;;;;4.54;100.00;152529.44;4973993;28;21024;-77
2022/11/20 04:13:28;;;;;;;5.03;4.33;;;;;;;4.55;100.00;152532.03;4974590;28;20526;-77
2022/11/20 04:16:13;;;;;;;5.10;3.80;;;;;;;4.56;100.00;152533.28;4969455;28;20458;-77
2022/11/20 04:19:00;;;;;;;4.50;3.63;;;;;;;4.51;100.00;152520.41;4954058;28;20450;-76
2022/11/20 04:21:48;;;;;;;5.03;4.27;;;;;;;4.46;100.00;152507.53;4991056;28;20473;-76
2022/11/20 04:24:33;;;;;;;4.90;4.43;;;;;;;4.47;100.00;152510.13;4977590;28;21070;-77
2022/11/20 04:27:18;;;;;;;4.93;4.40;;;;;;;4.50;100.00;152519.09;4994774;28;20774;-76
2022/11/20 04:30:04;;;;;;;7.03;4.60;;;;;;;4.51;100.00;152520.41;4974302;28;20988;-76
2022/11/20 04:32:50;;;;;;;4.60;4.10;;;;;;;4.45;100.00;152506.22;4974102;28;20531;-76
2022/11/20 04:35:35;;;;;;;5.23;4.50;;;;;;;4.43;100.00;152501.09;4952023;28;20453;-76
2022/11/20 04:38:22;;;;;;;4.73;4.20;;;;;;;4.38;100.00;152486.91;4972032;28;20476;-76
2022/11/20 04:41:08;;;;;;;5.80;4.17;;;;;;;4.41;100.00;152494.66;4944179;28;20454;-76
2022/11/20 04:43:59;;;;;;;6.60;4.00;;;;;;;4.43;100.00;152501.09;4981136;28;20552;-76
2022/11/20 04:46:44;;;;;;;4.80;4.30;;;;;;;4.44;100.00;152503.69;4970212;28;20582;-76
2022/11/20 04:49:31;;;;;;;5.27;4.40;;;;;;;4.46;100.00;152508.81;4970569;28;20457;-76
2022/11/20 04:52:16;;;;;;;7.53;4.00;;;;;;;4.50;100.00;152519.09;4974489;28;20782;-77
2022/11/20 04:55:03;;;;;;;6.47;4.63;;;;;;;4.50;100.00;152517.84;4974266;28;20446;-76
2022/11/20 04:57:50;;;;;;;5.40;4.27;;;;;;;4.53;100.00;152525.53;4980196;28;20500;-76
2022/11/20 05:00:36;;;;;;;5.23;3.87;;;;;;;4.47;100.00;152511.41;4974373;28;20595;-76
2022/11/20 05:03:21;;;;;;;5.63;4.17;;;;;;;4.54;100.00;152528.13;4955503;29;20414;-76
2022/11/20 05:06:08;;;;;;;5.27;3.97;;;;;;;4.54;100.00;152529.44;4966474;28;20446;-76
2022/11/20 05:08:53;;;;;;;4.80;4.00;;;;;;;4.54;100.00;152529.44;4970518;28;20454;-76
2022/11/20 05:11:39;;;;;;;4.93;4.43;;;;;;;4.59;100.00;152542.31;4976962;28;20617;-77
2022/11/20 05:14:25;;;;;;;7.60;4.40;;;;;;;4.59;100.00;152542.31;4979634;28;20876;-77
2022/11/20 05:17:11;;;;;;;4.97;4.00;;;;;;;4.59;100.00;152542.31;4972853;28;20521;-77
2022/11/20 05:19:57;;;;;;;4.63;3.60;;;;;;;4.59;100.00;152542.31;4990240;28;20444;-76
2022/11/20 05:22:42;;;;;;;4.37;3.57;;;;;;;4.63;100.00;152552.59;4991058;28;20441;-76
2022/11/20 05:25:27;;;;;;;4.60;4.20;;;;;;;4.67;100.00;152562.94;4994008;28;20488;-76
2022/11/20 05:28:14;;;;;;;5.40;4.40;;;;;;;4.68;100.00;152565.53;4989299;28;20445;-77
2022/11/20 05:31:05;;;;;;;5.20;3.70;;;;;;;4.70;100.00;152570.66;4992886;28;20453;-77
2022/11/20 05:33:51;;;;;;;5.27;4.20;;;;;;;4.71;100.00;152573.22;4986059;28;20789;-76
2022/11/20 05:36:36;;;;;;;4.30;3.90;;;;;;;4.69;100.00;152568.06;4985081;28;20456;-76
2022/11/20 05:39:21;;;;;;;3.87;3.17;;;;;;;4.72;100.00;152575.81;4978640;28;20433;-76
2022/11/20 05:45:11;;;;;;;4.20;3.40;;;;;;;4.77;100.00;152587.41;4991450;28;20573;-76
2022/11/20 05:47:59;;;;;;;5.20;3.77;;;;;;;4.75;100.00;152583.56;4994915;28;20452;-77
2022/11/20 05:50:44;;;;;;;4.13;3.00;;;;;;;4.75;100.00;152582.25;4975557;28;20449;-76
2022/11/20 05:53:29;;;;;;;4.03;3.33;;;;;;;4.74;100.00;152580.97;4988665;28;20456;-77
2022/11/20 05:56:16;;;;;;;4.23;3.83;;;;;;;4.75;100.00;152583.56;4988290;28;20444;-76
2022/11/20 05:59:02;;;;;;;5.00;3.60;;;;;;;4.74;100.00;152580.97;4994130;28;20416;-76
2022/11/20 06:01:48;;;;;;;4.07;3.50;;;;;;;4.75;100.00;152583.56;4986184;28;20839;-77
2022/11/20 06:04:34;;;;;;;3.20;2.90;;;;;;;4.77;100.00;152587.41;4984281;28;20523;-76
2022/11/20 06:07:19;;;;;;;5.70;3.60;;;;;;;4.80;100.00;152596.44;4982891;28;20588;-76
2022/11/20 06:10:05;;;;;;;3.13;2.80;;;;;;;4.80;100.00;152595.13;4990339;28;20447;-77
2022/11/20 06:12:50;;;;;;;4.33;3.53;;;;;;;4.81;100.00;152597.72;4984435;28;20488;-76
2022/11/20 06:15:35;;;;;;;3.70;3.30;;;;;;;4.83;100.00;152604.16;4991444;28;20986;-76
2022/11/20 06:18:22;;;;;;;5.07;3.80;;;;;;;4.86;100.00;152611.91;4991130;28;20449;-76
2022/11/20 06:21:09;;;;;;;4.60;3.63;;;;;;;4.85;100.00;152609.31;4992194;28;20453;-77
2022/11/20 06:23:55;;;;;;;3.50;3.20;;;;;;;4.82;100.00;152601.56;4987653;28;20469;-76
2022/11/20 06:26:40;;;;;;;4.30;3.17;;;;;;;4.86;100.00;152611.91;4993269;28;20448;-76
2022/11/20 06:29:26;;;;;;;4.17;3.47;;;;;;;4.82;100.00;152601.56;4982865;28;20445;-76
2022/11/20 06:32:11;;;;;;;4.33;2.73;;;;;;;4.81;100.00;152599.03;4991617;28;20528;-76
2022/11/20 06:34:58;;;;;;;4.37;3.47;;;;;;;4.78;100.00;152590.00;4986422;28;20433;-76
2022/11/20 06:37:43;;;;;;;3.73;3.13;;;;;;;4.81;100.00;152599.03;5012757;28;20688;-76
2022/11/20 06:40:28;;;;;;;3.70;3.23;;;;;;;4.80;100.00;152596.44;4984916;28;20466;-77
2022/11/20 06:43:14;;;;;;;4.23;3.43;;;;;;;4.80;100.00;152596.44;4982928;28;20588;-76
2022/11/20 06:45:59;;;;;;;4.20;3.03;;;;;;;4.82;100.00;152600.28;4977732;28;20543;-76
2022/11/20 06:48:45;;;;;;;4.77;3.87;;;;;;;4.82;100.00;152600.28;4977804;28;20584;-76
2022/11/20 06:51:32;;;;;;;4.47;3.33;;;;;;;4.82;100.00;152601.56;4995181;28;20963;-76
2022/11/20 06:54:17;;;;;;;3.50;3.20;;;;;;;4.82;100.00;152600.28;4996404;28;21015;-76
2022/11/20 06:57:03;;;;;;;3.93;3.10;;;;;;;4.87;100.00;152614.47;4995287;28;20937;-76
2022/11/20 06:59:48;;;;;;;5.30;4.13;;;;;;;4.84;100.00;152605.47;4996962;28;20507;-76
2022/11/20 07:02:33;;;;;;;7.00;3.90;;;;;;;4.82;100.00;152600.28;4993876;28;20943;-76
2022/11/20 07:05:19;;;;;;;4.80;3.83;;;;;;;4.82;100.00;152601.56;4987545;28;20932;-76
2022/11/20 07:08:06;;;;;;;6.30;3.47;;;;;;;4.81;100.00;152599.03;4992916;28;20460;-76
2022/11/20 07:10:51;;;;;;;5.27;4.07;;;;;;;4.84;100.00;152606.72;4988703;28;20517;-75
2022/11/20 07:13:39;;;;;;;4.40;3.50;;;;;;;4.82;100.00;152601.56;4998056;28;20465;-77
2022/11/20 07:16:25;;;;;;;4.23;3.83;;;;;;;4.82;100.00;152600.28;4994773;28;20480;-77
2022/11/20 07:19:10;;;;;;;4.47;3.23;;;;;;;4.81;100.00;152599.03;4995615;28;20464;-77
2022/11/20 07:21:56;;;;;;;3.90;3.33;;;;;;;4.83;100.00;152602.88;4993645;28;20560;-78
2022/11/20 07:24:42;;;;;;;5.30;3.70;;;;;;;4.84;100.00;152606.72;4994555;28;20479;-77
2022/11/20 07:27:28;;;;;;;8.07;3.13;;;;;;;4.89;100.00;152619.66;4989448;28;20424;-77
2022/11/20 07:30:14;;;;;;;5.23;3.77;;;;;;;4.90;100.00;152622.19;4982273;28;20500;-77
2022/11/20 07:33:00;;;;;;;4.63;3.83;;;;;;;4.92;100.00;152627.34;4995332;28;20417;-77
2022/11/20 07:35:46;;;;;;;3.17;2.87;;;;;;;4.95;100.00;152632.53;4994967;28;20573;-77
2022/11/20 07:38:31;;;;;;;3.63;3.03;;;;;;;5.00;100.00;152645.41;4994477;28;20441;-77
2022/11/20 07:41:18;;;;;;;4.20;3.13;;;;;;;5.02;100.00;152650.56;4982947;28;20457;-77
2022/11/20 07:44:04;;;;;;;4.83;3.73;;;;;;;5.09;100.00;152668.59;4994250;28;20451;-77
2022/11/20 07:46:49;;;;;;;4.93;3.23;;;;;;;5.13;100.00;152680.22;4988495;28;20573;-77
2022/11/20 07:49:34;;;;;;;4.40;3.33;;;;;;;5.15;100.00;152685.38;4991801;28;21156;-77
2022/11/20 07:52:20;;;;;;;3.97;3.30;;;;;;;5.18;100.00;152691.81;4977457;28;20507;-77
2022/11/20 07:55:07;;;;;;;4.67;3.30;;;;;;;5.21;100.00;152700.84;4989552;28;20441;-77
2022/11/20 07:57:56;;;;;;;3.83;3.40;;;;;;;5.25;100.00;152711.13;4999855;28;20947;-77
2022/11/20 08:00:42;;;;;;;4.90;3.80;;;;;;;5.33;100.00;152730.47;4985187;28;20444;-77
2022/11/20 08:03:27;;;;;;;4.67;3.43;;;;;;;5.39;100.00;152747.25;4994941;28;20441;-77
2022/11/20 08:06:12;;;;;;;4.10;3.70;;;;;;;5.38;100.00;152743.34;4990141;28;20532;-77
2022/11/20 08:08:58;;;;;;;4.50;3.30;;;;;;;5.39;100.00;152745.94;4982178;28;20437;-77
2022/11/20 08:14:47;;;;;;;6.90;4.00;;;;;;;5.49;100.00;152771.72;4980202;28;20452;-77
2022/11/20 08:17:32;;;;;;;6.10;4.20;;;;;;;5.48;100.00;152770.44;4992859;28;20452;-77
2022/11/20 08:20:17;;;;;;;5.43;4.77;;;;;;;5.55;100.00;152787.22;4986677;28;20444;-77
2022/11/20 08:23:05;;;;;;;5.27;4.20;;;;;;;5.57;100.00;152792.38;4992856;28;20437;-77
2022/11/20 08:25:51;;;;;;;5.60;4.13;;;;;;;5.61;100.00;152801.41;4991816;28;20485;-77
2022/11/20 08:28:36;;;;;;;3.87;3.40;;;;;;;5.66;100.00;152814.28;4989389;28;20520;-77
2022/11/20 08:31:24;;;;;;;3.97;3.07;;;;;;;5.67;100.00;152816.84;4992768;28;20592;-86
2022/11/20 08:34:09;;;;;;;4.83;3.57;;;;;;;5.67;100.00;152818.16;4992408;28;20740;-86
2022/11/20 08:36:54;;;;;;;3.87;2.60;;;;;;;5.67;100.00;152818.16;4997995;28;20534;-86
2022/11/20 08:39:39;;;;;;;3.97;3.57;;;;;;;5.71;100.00;152827.19;4989920;28;20975;-86
2022/11/20 08:42:24;;;;;;;5.13;3.10;;;;;;;5.72;100.00;152831.03;4992496;28;20448;-86
2022/11/20 08:45:10;;;;;;;4.10;3.37;;;;;;;5.76;100.00;152841.38;4990312;28;20512;-87
2022/11/20 08:48:01;;;;;;;3.83;3.20;;;;;;;5.78;100.00;152846.53;4987634;28;20565;-87
2022/11/20 08:50:46;;;;;;;6.73;4.30;;;;;;;5.78;100.00;152846.53;4989993;28;20489;-86
2022/11/20 08:53:31;;;;;;;4.17;3.77;;;;;;;5.78;100.00;152845.22;4991213;28;20797;-86
2022/11/20 08:56:17;;;;;;;5.30;3.97;;;;;;;5.83;100.00;152858.13;4972441;28;20580;-86
2022/11/20 08:59:02;;;;;;;3.57;3.17;;;;;;;5.92;100.00;152882.69;4992122;28;20444;-86
2022/11/20 09:01:48;;;;;;;4.13;2.33;;;;;;;5.97;100.00;152895.59;4991802;28;20539;-88
2022/11/20 09:04:35;;;;;;;3.87;3.07;;;;;;;6.11;100.00;152930.44;4992012;28;20501;-86
2022/11/20 09:07:20;;;;;;;4.17;3.40;;;;;;;6.17;100.00;152944.63;4973806;28;20505;-86
2022/11/20 09:10:07;;;;;;;3.63;2.83;;;;;;;6.21;100.00;152956.22;4985795;28;20496;-86
2022/11/20 09:12:53;;;;;;;4.80;4.03;;;;;;;6.24;100.00;152962.66;4999486;28;20492;-86
2022/11/20 09:15:38;;;;;;;4.33;2.83;;;;;;;6.32;100.00;152984.63;4997207;28;20433;-86
2022/11/20 09:18:24;;;;;;;3.53;2.60;;;;;;;6.32;100.00;152983.31;4992200;28;20917;-86
2022/11/20 09:21:22;;;;;;;4.63;3.50;;;;;;;6.34;100.00;152988.47;4991457;28;20449;-89
2022/11/20 09:24:08;;;;;;;2.90;2.20;;;;;;;6.34;100.00;152988.47;4993741;28;20522;-86
2022/11/20 09:26:54;;;;;;;2.10;1.90;;;;;;;6.35;100.00;152991.06;4978531;28;20444;-86
2022/11/20 09:29:39;;;;;;;2.20;2.00;;;;;;;6.40;100.00;153003.97;4985412;28;20547;-86
2022/11/20 09:32:25;;;;;;;2.57;1.80;;;;;;;6.38;100.00;152998.81;4971401;28;20456;-86
2022/11/20 09:35:11;;;;;;;1.77;1.37;;;;;;;6.42;100.00;153010.41;4984473;28;20413;-86
2022/11/20 09:37:58;;;;;;;1.50;1.13;;;;;;;6.46;100.00;153020.72;4991977;28;20468;-86
2022/11/20 09:40:48;;;;;;;2.40;1.63;;;;;;;6.48;100.00;153025.91;4989610;28;20588;-86
2022/11/20 09:43:46;;;;;;;2.20;1.50;;;;;;;6.48;100.00;153024.63;4976508;28;20613;-86
2022/11/20 09:46:39;;;;;;;1.40;1.20;;;;;;;6.46;100.00;153019.47;4988456;28;20496;-86
2022/11/20 09:49:30;;;;;;;1.87;1.53;;;;;;;6.48;100.00;153024.63;4989592;28;20417;-86
2022/11/20 09:52:22;;;;;;;3.37;1.40;;;;;;;6.52;100.00;153034.91;4989244;28;20445;-86
2022/11/20 09:55:12;;;;;;;1.63;1.00;;;;;;;6.53;100.00;153037.50;4988638;28;20413;-86
2022/11/20 09:57:58;;;;;;;2.17;1.33;;;;;;;6.51;100.00;153032.38;4989336;28;21011;-86
2022/11/20 10:00:44;;;;;;;1.53;1.00;;;;;;;6.54;100.00;153040.13;5000229;28;20619;-86
2022/11/20 10:03:38;;;;;;;1.50;0.97;;;;;;;6.59;100.00;153053.00;4994953;28;20440;-86
2022/11/20 10:06:29;;;;;;;2.03;1.50;;;;;;;6.56;100.00;153045.25;4996415;28;20507;-86
2022/11/20 10:09:21;;;;;;;1.30;1.10;;;;;;;6.54;100.00;153040.13;4995328;28;20460;-86
2022/11/20 10:12:14;;;;;;;2.00;1.53;;;;;;;6.58;100.00;153051.72;4991764;28;20481;-86
2022/11/20 10:15:14;;;;;;;2.93;2.03;;;;;;;6.55;100.00;153043.97;4991349;28;20448;-86
2022/11/20 10:18:12;;;;;;;2.37;1.50;;;;;;;6.51;100.00;153032.38;4996403;28;20955;-85
2022/11/20 10:21:04;;;;;;;2.27;1.60;;;;;;;6.50;100.00;153029.75;4996053;28;20456;-86
2022/11/20 10:24:00;;;;;;;1.87;1.30;;;;;;;6.48;100.00;153024.63;4993145;28;20448;-88
2022/11/20 10:26:55;;;;;;;1.93;1.33;;;;;;;6.51;100.00;153032.38;4995891;28;20483;-86
2022/11/20 10:29:44;;;;;;;1.40;1.10;;;;;;;6.56;100.00;153045.25;4991115;28;20441;-86
2022/11/20 10:32:35;;;;;;;2.43;0.93;;;;;;;6.50;100.00;153029.75;4977388;28;20428;-86
2022/11/20 10:35:22;;;;;;;2.03;1.10;;;;;;;6.49;100.00;153027.16;4995017;28;20453;-86
2022/11/20 10:38:15;;;;;;;2.20;1.80;;;;;;;6.43;100.00;153013.03;4977773;28;20424;-85
2022/11/20 10:44:05;;;;;;;1.57;1.23;;;;;;;6.42;100.00;153010.41;4982339;28;20441;-85
2022/11/20 10:46:51;;;;;;;2.03;1.50;;;;;;;6.43;100.00;153011.72;4985562;28;20477;-86
2022/11/20 10:49:37;;;;;;;1.40;1.00;;;;;;;6.39;100.00;153002.66;4985629;28;20456;-86
2022/11/20 10:52:29;;;;;;;2.10;1.30;;;;;;;6.38;100.00;152998.81;4995250;28;20453;-86
2022/11/20 10:55:27;;;;;;;1.50;0.90;;;;;;;6.34;100.00;152988.47;4987013;28;21023;-86
2022/11/20 10:58:15;;;;;;;1.57;1.20;;;;;;;6.34;100.00;152989.78;4981651;28;20524;-86
2022/11/20 11:01:05;;;;;;;1.47;1.30;;;;;;;6.33;100.00;152985.91;4979131;28;20477;-86
2022/11/20 11:03:53;;;;;;;1.70;1.40;;;;;;;6.33;100.00;152985.91;4986920;28;20442;-86
2022/11/20 11:06:42;;;;;;;3.27;2.30;;;;;;;6.34;100.00;152989.78;4973520;28;20473;-86
2022/11/20 11:09:33;;;;;;;2.30;1.90;;;;;;;6.35;100.00;152991.06;4991754;28;20838;-86
2022/11/20 11:12:19;;;;;;;1.80;1.40;;;;;;;6.37;100.00;152996.22;4982039;28;20579;-86
2022/11/20 11:15:05;;;;;;;3.00;2.17;;;;;;;6.40;100.00;153003.97;4994995;28;20444;-86
2022/11/20 11:17:51;;;;;;;2.30;1.77;;;;;;;6.39;100.00;153002.66;4994950;28;20457;-86
2022/11/20 11:20:38;;;;;;;2.30;1.70;;;;;;;6.41;100.00;153006.53;4993084;28;20540;-86
2022/11/20 11:23:32;;;;;;;1.80;1.40;;;;;;;6.43;100.00;153011.72;4992893;28;20420;-86
2022/11/20 11:26:22;;;;;;;2.40;1.70;;;;;;;6.48;100.00;153024.63;4989158;28;20480;-86
2022/11/20 11:29:18;;;;;;;2.60;1.90;;;;;;;6.56;100.00;153046.56;5001569;28;20433;-86
2022/11/20 11:32:06;;;;;;;4.07;2.30;;;;;;;6.65;100.00;153068.47;4989633;28;20528;-86
2022/11/20 11:35:01;;;;;;;2.17;1.97;;;;;;;6.68;100.00;153076.22;4978489;28;20503;-86
2022/11/20 11:37:48;;;;;;;2.23;2.00;;;;;;;6.72;100.00;153086.56;4975970;28;20451;-86
2022/11/20 11:40:36;;;;;;;2.63;2.20;;;;;;;6.74;100.00;153093.03;4990952;28;20461;-86
2022/11/20 11:46:31;;;;;;;2.53;2.20;;;;;;;6.81;100.00;153108.47;4984968;28;20481;-88
2022/11/20 11:49:18;;;;;;;2.20;2.00;;;;;;;6.85;100.00;153120.13;4987126;28;20452;-86
2022/11/20 11:52:09;;;;;;;4.73;2.03;;;;;;;6.82;100.00;153112.38;4991706;28;21092;-86
2022/11/20 11:54:57;;;;;;;2.80;2.17;;;;;;;6.85;100.00;153120.13;4993136;28;20452;-86
2022/11/20 11:57:48;;;;;;;2.30;1.80;;;;;;;6.91;100.00;153135.59;4993104;28;20488;-86
2022/11/20 12:00:35;;;;;;;2.23;2.03;;;;;;;6.90;100.00;153133.03;4993979;28;20457;-86
2022/11/20 12:03:26;;;;;;;2.97;2.30;;;;;;;6.88;100.00;153127.88;4989792;28;20475;-86
2022/11/20 12:06:13;;;;;;;2.70;2.13;;;;;;;6.97;100.00;153151.09;4991384;28;21046;-86
2022/11/20 12:09:02;;;;;;;2.07;1.87;;;;;;;6.98;100.00;153152.38;4975958;28;20492;-86
2022/11/20 12:11:53;;;;;;;3.03;1.97;;;;;;;7.00;100.00;153158.84;4988795;28;20551;-85
2022/11/20 12:14:41;;;;;;;3.30;2.20;;;;;;;7.08;100.00;153179.50;4993868;28;21207;-85
2022/11/20 12:17:26;;;;;;;2.83;2.10;;;;;;;7.10;100.00;153184.66;4990283;28;20433;-86
2022/11/20 12:20:14;;;;;;;3.47;1.90;;;;;;;7.11;100.00;153187.25;4989678;28;20790;-86
2022/11/20 12:23:03;;;;;;;2.20;1.53;;;;;;;7.12;100.00;153188.56;4994380;28;20515;-86
2022/11/20 12:25:51;;;;;;;1.97;1.77;;;;;;;7.11;100.00;153187.25;4976780;28;20469;-86
2022/11/20 12:28:50;;;;;;;6.20;1.67;;;;;;;7.12;100.00;153188.56;4991544;28;20965;-86
2022/11/20 12:32:19;;;;;;;1.60;1.30;;;;;;;7.01;100.00;153161.44;4991662;28;20584;-86
2022/11/20 12:35:14;;;;;;;2.67;1.80;;;;;;;6.91;100.00;153135.59;4991968;28;20543;-86
2022/11/20 12:38:14;;;;;;;2.83;1.63;;;;;;;6.91;100.00;153134.34;4982045;28;20524;-86
2022/11/20 12:41:04;;;;;;;2.27;1.57;;;;;;;6.91;100.00;153134.34;4993595;28;20520;-86
2022/11/20 12:47:13;;;;;;;2.13;1.50;;;;;;;6.85;100.00;153118.81;4988647;28;20491;-86
2022/11/20 12:50:03;;;;;;;2.77;1.37;;;;;;;6.85;100.00;153120.13;4986602;28;20936;-86
2022/11/20 12:52:52;;;;;;;1.63;1.40;;;;;;;6.82;100.00;153112.38;4994022;28;20480;-86
2022/11/20 12:55:47;;;;;;;1.50;1.20;;;;;;;6.82;100.00;153112.38;4993224;28;20484;-86
2022/11/20 12:58:40;;;;;;;1.50;1.30;;;;;;;6.87;100.00;153123.97;4989027;28;20420;-86
2022/11/20 13:01:43;;;;;;;1.40;1.23;;;;;;;6.86;100.00;153121.44;4989896;28;21235;-85
2022/11/20 13:04:43;;;;;;;2.70;1.20;;;;;;;6.89;100.00;153130.44;4990434;28;20944;-86
2022/11/20 13:07:29;;;;;;;2.30;1.43;;;;;;;6.88;100.00;153127.88;4995970;28;21157;-86
2022/11/20 13:10:19;;;;;;;3.07;1.63;;;;;;;6.87;100.00;153125.28;4990375;28;20524;-86
2022/11/20 13:13:13;;;;;;;3.10;1.60;;;;;;;6.85;99.84;153120.13;4992076;28;20609;-86